createdAt,value
2022-07-25T00:02:01.390Z,100081.00
2022-07-25T00:04:30.140Z,100075.00
2022-07-25T00:06:57.908Z,100075.00
2022-07-25T00:09:25.490Z,100070.00
2022-07-25T00:11:53.073Z,100076.00
2022-07-25T00:14:20.746Z,100062.00
2022-07-25T00:16:48.489Z,100056.00
2022-07-25T00:19:16.030Z,100054.00
2022-07-25T00:21:43.753Z,100043.00
2022-07-25T00:24:11.400Z,100049.00
2022-07-25T00:26:42.097Z,100036.00
2022-07-25T00:29:09.861Z,100035.00
2022-07-25T00:31:38.150Z,100039.00
2022-07-25T00:34:06.463Z,100033.00
2022-07-25T00:36:34.547Z,100034.00
2022-07-25T00:39:02.245Z,100037.00
2022-07-25T00:41:30.084Z,100031.00
2022-07-25T00:43:57.698Z,100033.00
2022-07-25T00:46:25.921Z,100033.00
2022-07-25T00:48:54.927Z,100034.00
2022-07-25T00:51:23.377Z,100030.00
2022-07-25T00:53:51.018Z,100028.00
2022-07-25T00:56:18.820Z,100026.00
2022-07-25T00:58:46.455Z,100024.00
2022-07-25T01:01:14.247Z,100017.00
2022-07-25T01:03:42.387Z,100015.00
2022-07-25T01:06:10.377Z,100012.00
2022-07-25T01:08:38.517Z,100007.00
2022-07-25T01:11:06.716Z,100012.00
2022-07-25T01:13:35.123Z,100006.00
2022-07-25T01:16:03.166Z,100005.00
2022-07-25T01:18:31.528Z,99991.00
2022-07-25T01:20:59.099Z,99996.00
2022-07-25T01:23:26.979Z,99989.00
2022-07-25T01:25:54.934Z,99985.00
2022-07-25T01:28:22.434Z,99988.00
2022-07-25T01:30:50.047Z,99976.00
2022-07-25T01:33:22.863Z,99975.00
2022-07-25T01:35:51.157Z,99973.00
2022-07-25T01:38:19.480Z,99976.00
2022-07-25T01:40:47.022Z,99978.00
2022-07-25T01:43:14.573Z,99970.00
2022-07-25T01:45:42.357Z,99972.00
2022-07-25T01:48:10.251Z,99963.00
2022-07-25T01:50:37.919Z,99967.00
2022-07-25T01:53:06.030Z,99963.00
2022-07-25T01:55:33.679Z,99962.00
2022-07-25T01:58:01.681Z,99951.00
2022-07-25T02:00:29.552Z,99955.00
2022-07-25T02:03:15.987Z,99953.00
2022-07-25T02:05:43.559Z,99958.00
2022-07-25T02:08:11.283Z,99949.00
2022-07-25T02:10:39.483Z,99947.00
2022-07-25T02:13:07.335Z,99948.00
2022-07-25T02:15:36.069Z,99949.00
2022-07-25T02:18:04.047Z,99941.00
2022-07-25T02:20:31.684Z,99936.00
2022-07-25T02:22:59.376Z,99933.00
2022-07-25T02:25:26.957Z,99927.00
2022-07-25T02:27:54.908Z,99932.00
2022-07-25T02:30:23.313Z,99927.00
2022-07-25T02:32:50.933Z,99922.00
2022-07-25T02:35:18.602Z,99927.00
2022-07-25T02:37:46.199Z,99921.00
2022-07-25T02:40:13.897Z,99920.00
2022-07-25T02:42:41.614Z,99923.00
2022-07-25T02:45:09.870Z,99924.00
2022-07-25T02:47:37.473Z,99915.00
2022-07-25T02:50:05.894Z,99920.00
2022-07-25T02:52:33.580Z,99913.00
2022-07-25T02:55:04.876Z,99910.00
2022-07-25T02:57:36.547Z,99905.00
2022-07-25T03:00:07.299Z,99910.00
2022-07-25T03:02:35.299Z,99902.00
2022-07-25T03:05:05.630Z,99894.00
2022-07-25T03:07:33.338Z,99892.00
2022-07-25T03:10:00.698Z,99887.00
2022-07-25T03:12:28.423Z,99885.00
2022-07-25T03:14:55.956Z,99889.00
2022-07-25T03:17:23.583Z,99880.00
2022-07-25T03:19:51.047Z,99882.00
2022-07-25T03:22:18.553Z,99872.00
2022-07-25T03:24:46.151Z,99877.00
2022-07-25T03:27:13.894Z,99877.00
2022-07-25T03:29:41.742Z,99875.00
2022-07-25T03:32:09.893Z,99876.00
2022-07-25T03:34:37.660Z,99867.00
2022-07-25T03:37:05.918Z,99871.00
2022-07-25T03:39:33.840Z,99860.00
2022-07-25T03:42:01.530Z,99861.00
2022-07-25T03:44:29.227Z,99860.00
2022-07-25T03:46:56.910Z,99857.00
2022-07-25T03:49:24.328Z,99848.00
2022-07-25T03:51:51.928Z,99846.00
2022-07-25T03:54:19.958Z,99848.00
2022-07-25T03:56:50.795Z,99846.00
2022-07-25T03:59:21.581Z,99845.00
2022-07-25T04:01:51.117Z,99842.00
2022-07-25T04:04:20.065Z,99847.00
2022-07-25T04:06:48.050Z,99843.00
2022-07-25T04:09:16.152Z,99842.00
2022-07-25T04:11:44.064Z,99833.00
2022-07-25T04:14:12.333Z,99837.00
2022-07-25T04:16:40.189Z,99835.00
2022-07-25T04:19:08.744Z,99830.00
2022-07-25T04:21:36.618Z,99818.00
2022-07-25T04:24:04.680Z,99827.00
2022-07-25T04:26:32.554Z,99821.00
2022-07-25T04:29:03.322Z,99817.00
2022-07-25T04:31:30.859Z,99819.00
2022-07-25T04:33:58.570Z,99810.00
2022-07-25T04:36:26.954Z,99805.00
2022-07-25T04:38:54.707Z,99809.00
2022-07-25T04:41:22.571Z,99807.00
2022-07-25T04:43:50.002Z,99802.00
2022-07-25T04:46:22.213Z,99796.00
2022-07-25T04:48:50.856Z,99802.00
2022-07-25T04:51:19.614Z,99793.00
2022-07-25T04:53:47.801Z,99794.00
2022-07-25T04:56:15.736Z,99790.00
2022-07-25T04:58:43.963Z,99790.00
2022-07-25T05:01:11.943Z,99787.00
2022-07-25T05:03:39.506Z,99789.00
2022-07-25T05:06:07.737Z,99780.00
2022-07-25T05:08:35.070Z,99778.00
2022-07-25T05:11:02.995Z,99773.00
2022-07-25T05:13:30.536Z,99764.00
2022-07-25T05:15:58.168Z,99760.00
2022-07-25T05:18:25.987Z,99761.00
2022-07-25T05:20:59.307Z,99760.00
2022-07-25T05:23:27.260Z,99752.00
2022-07-25T05:25:54.875Z,99749.00
2022-07-25T05:28:22.376Z,99753.00
2022-07-25T05:30:49.852Z,99752.00
2022-07-25T05:33:17.304Z,99755.00
2022-07-25T05:35:44.914Z,99747.00
2022-07-25T05:38:12.406Z,99758.00
2022-07-25T05:40:39.937Z,99750.00
2022-07-25T05:43:07.585Z,99747.00
2022-07-25T05:45:35.270Z,99747.00
2022-07-25T05:48:02.936Z,99740.00
2022-07-25T05:50:30.928Z,99737.00
2022-07-25T05:53:00.852Z,99735.00
2022-07-25T05:55:28.512Z,99731.00
2022-07-25T05:57:56.618Z,99729.00
2022-07-25T06:00:24.634Z,99725.00
2022-07-25T06:02:52.424Z,99725.00
2022-07-25T06:05:20.521Z,99722.00
2022-07-25T06:07:48.240Z,99722.00
2022-07-25T06:10:15.788Z,99715.00
2022-07-25T06:12:43.364Z,99711.00
2022-07-25T06:15:14.469Z,99715.00
2022-07-25T06:17:54.874Z,99710.00
2022-07-25T06:20:22.497Z,99706.00
2022-07-25T06:22:50.173Z,99710.00
2022-07-25T06:25:17.716Z,99702.00
2022-07-25T06:27:45.667Z,99701.00
2022-07-25T06:30:19.756Z,99700.00
2022-07-25T06:32:51.063Z,99694.00
2022-07-25T06:35:18.937Z,99698.00
2022-07-25T06:37:47.079Z,99689.00
2022-07-25T06:40:15.442Z,99690.00
2022-07-25T06:42:46.537Z,99680.00
2022-07-25T06:45:15.863Z,99676.00
2022-07-25T06:47:45.246Z,99677.00
2022-07-25T06:50:16.365Z,99667.00
2022-07-25T06:52:43.816Z,99671.00
2022-07-25T06:55:13.874Z,99665.00
2022-07-25T06:57:43.194Z,99665.00
2022-07-25T07:00:13.893Z,99658.00
2022-07-25T07:02:53.284Z,99659.00
2022-07-25T07:05:22.443Z,99657.00
2022-07-25T07:07:50.460Z,99651.00
2022-07-25T07:10:19.257Z,99647.00
2022-07-25T07:12:47.215Z,99652.00
2022-07-25T07:15:15.589Z,99647.00
2022-07-25T07:17:43.382Z,99647.00
2022-07-25T07:20:12.075Z,99644.00
2022-07-25T07:22:50.059Z,99647.00
2022-07-25T07:25:21.234Z,99641.00
2022-07-25T07:27:48.977Z,99631.00
2022-07-25T07:30:20.858Z,99636.00
2022-07-25T07:32:51.761Z,99641.00
2022-07-25T07:35:20.037Z,99637.00
2022-07-25T07:37:48.175Z,99627.00
2022-07-25T07:40:16.945Z,99626.00
2022-07-25T07:42:48.814Z,99627.00
2022-07-25T07:45:25.039Z,99612.00
2022-07-25T07:47:54.996Z,99622.00
2022-07-25T07:50:27.283Z,99615.00
2022-07-25T07:52:58.380Z,99617.00
2022-07-25T07:55:45.635Z,99612.00
2022-07-25T07:58:16.988Z,99607.00
2022-07-25T08:00:48.701Z,99610.00
2022-07-25T08:03:22.491Z,99604.00
2022-07-25T08:05:52.061Z,99608.00
2022-07-25T08:08:20.032Z,99602.00
2022-07-25T08:10:49.910Z,99605.00
2022-07-25T08:13:20.775Z,99592.00
2022-07-25T08:15:52.475Z,99593.00
2022-07-25T08:18:20.949Z,99586.00
2022-07-25T08:20:49.605Z,99579.00
2022-07-25T08:23:17.890Z,99578.00
2022-07-25T08:25:46.354Z,99571.00
2022-07-25T08:28:14.810Z,99568.00
2022-07-25T08:30:43.231Z,99565.00
2022-07-25T08:33:13.996Z,99556.00
2022-07-25T08:35:49.912Z,99554.00
2022-07-25T08:38:18.724Z,99566.00
2022-07-25T08:40:46.881Z,99563.00
2022-07-25T08:43:16.350Z,99556.00
2022-07-25T08:45:53.229Z,99550.00
2022-07-25T08:48:24.623Z,99542.00
2022-07-25T08:50:54.273Z,99549.00
2022-07-25T08:53:38.909Z,99548.00
2022-07-25T08:56:13.741Z,99548.00
2022-07-25T08:58:44.014Z,99542.00
2022-07-25T09:01:14.118Z,99538.00
2022-07-25T09:03:47.092Z,99537.00
2022-07-25T09:06:21.630Z,99536.00
2022-07-25T09:08:58.882Z,99531.00
2022-07-25T09:11:36.151Z,99530.00
2022-07-25T09:14:15.161Z,99523.00
2022-07-25T09:16:45.592Z,99525.00
2022-07-25T09:19:21.976Z,99524.00
2022-07-25T09:22:04.147Z,99520.00
2022-07-25T09:24:34.553Z,99514.00
2022-07-25T09:27:12.478Z,99515.00
2022-07-25T09:29:45.471Z,99509.00
2022-07-25T09:32:22.382Z,99517.00
2022-07-25T09:34:51.163Z,99518.00
2022-07-25T09:37:26.763Z,99512.00
2022-07-25T09:39:54.507Z,99509.00
2022-07-25T09:42:26.056Z,99507.00
2022-07-25T09:45:13.070Z,99507.00
2022-07-25T09:48:00.628Z,99512.00
2022-07-25T09:50:31.947Z,99507.00
2022-07-25T09:53:02.744Z,99504.00
2022-07-25T09:55:31.746Z,99502.00
2022-07-25T09:57:59.949Z,99496.00
2022-07-25T10:00:29.526Z,99503.00
2022-07-25T10:03:18.944Z,99495.00
2022-07-25T10:06:01.698Z,99485.00
2022-07-25T10:08:30.714Z,99494.00
2022-07-25T10:10:58.663Z,99481.00
2022-07-25T10:13:34.532Z,99479.00
2022-07-25T10:16:02.994Z,99475.00
2022-07-25T10:18:32.108Z,99478.00
2022-07-25T10:21:25.564Z,99472.00
2022-07-25T10:24:11.413Z,99474.00
2022-07-25T10:26:52.427Z,99471.00
2022-07-25T10:29:19.974Z,99472.00
2022-07-25T10:31:51.497Z,99468.00
2022-07-25T10:34:33.730Z,99464.00
2022-07-25T10:37:16.897Z,99466.00
2022-07-25T10:39:46.488Z,99466.00
2022-07-25T10:42:21.945Z,99457.00
2022-07-25T10:44:56.742Z,99454.00
2022-07-25T10:47:28.656Z,99461.00
2022-07-25T10:50:21.587Z,99464.00
2022-07-25T10:53:02.019Z,99457.00
2022-07-25T10:55:31.600Z,99451.00
2022-07-25T10:58:17.967Z,99448.00
2022-07-25T11:00:46.044Z,99445.00
2022-07-25T11:03:18.077Z,99451.00
2022-07-25T11:05:48.311Z,99434.00
2022-07-25T11:08:22.120Z,99438.00
2022-07-25T11:10:53.813Z,99435.00
2022-07-25T11:13:21.984Z,99426.00
2022-07-25T11:15:50.009Z,99417.00
2022-07-25T11:18:18.934Z,99419.00
2022-07-25T11:20:46.720Z,99420.00
2022-07-25T11:23:22.512Z,99420.00
2022-07-25T11:25:51.704Z,99417.00
2022-07-25T11:28:19.508Z,99415.00
2022-07-25T11:30:47.795Z,99413.00
2022-07-25T11:33:17.789Z,99408.00
2022-07-25T11:35:45.731Z,99415.00
2022-07-25T11:38:14.873Z,99405.00
2022-07-25T11:40:45.481Z,99405.00
2022-07-25T11:43:26.102Z,99404.00
2022-07-25T11:46:07.974Z,99397.00
2022-07-25T11:48:41.002Z,99399.00
2022-07-25T11:51:19.327Z,99397.00
2022-07-25T11:53:50.698Z,99392.00
2022-07-25T11:59:11.319Z,99378.00
2022-07-25T12:01:45.678Z,99376.00
2022-07-25T12:04:19.675Z,99378.00
2022-07-25T12:06:50.443Z,99378.00
2022-07-25T12:09:20.999Z,99372.00
2022-07-25T12:11:50.161Z,99376.00
2022-07-25T12:14:18.209Z,99371.00
2022-07-25T12:16:46.011Z,99368.00
2022-07-25T12:19:22.218Z,99371.00
2022-07-25T12:21:50.000Z,99375.00
2022-07-25T12:24:17.607Z,99375.00
2022-07-25T12:26:45.133Z,99366.00
2022-07-25T12:29:12.790Z,99359.00
2022-07-25T12:31:40.427Z,99376.00
2022-07-25T12:34:08.170Z,99381.00
2022-07-25T12:36:41.423Z,99386.00
2022-07-25T12:39:09.427Z,99388.00
2022-07-25T12:41:39.851Z,99388.00
2022-07-25T12:44:10.420Z,99384.00
2022-07-25T12:46:42.593Z,99381.00
2022-07-25T12:49:12.759Z,99384.00
2022-07-25T12:51:40.456Z,99377.00
2022-07-25T12:54:08.455Z,99372.00
2022-07-25T12:56:36.217Z,99375.00
2022-07-25T12:59:04.178Z,99364.00
2022-07-25T13:01:32.231Z,99367.00
2022-07-25T13:04:02.665Z,99364.00
2022-07-25T13:06:31.840Z,99361.00
2022-07-25T13:09:02.394Z,99362.00
2022-07-25T13:11:31.563Z,99361.00
2022-07-25T13:13:59.718Z,99373.00
2022-07-25T13:16:27.567Z,99373.00
2022-07-25T13:18:55.382Z,99365.00
2022-07-25T13:21:23.383Z,99362.00
2022-07-25T13:23:51.491Z,99366.00
2022-07-25T13:26:19.641Z,99360.00
2022-07-25T13:28:47.541Z,99356.00
2022-07-25T13:31:15.875Z,99362.00
2022-07-25T13:33:44.617Z,99360.00
2022-07-25T13:36:13.110Z,99355.00
2022-07-25T13:38:42.006Z,99369.00
2022-07-25T13:41:10.090Z,99363.00
2022-07-25T13:43:38.009Z,99361.00
2022-07-25T13:46:06.095Z,99367.00
2022-07-25T13:48:35.052Z,99375.00
2022-07-25T13:51:02.805Z,99369.00
2022-07-25T13:53:30.851Z,99373.00
2022-07-25T13:56:00.614Z,99375.00
2022-07-25T13:58:30.618Z,99380.00
2022-07-25T14:00:58.886Z,99385.00
2022-07-25T14:03:26.705Z,99389.00
2022-07-25T14:05:54.921Z,99391.00
2022-07-25T14:08:23.031Z,99393.00
2022-07-25T14:10:50.823Z,99386.00
2022-07-25T14:13:19.023Z,99387.00
2022-07-25T14:15:47.543Z,99388.00
2022-07-25T14:18:15.649Z,99391.00
2022-07-25T14:20:44.274Z,99385.00
2022-07-25T14:23:11.903Z,99368.00
2022-07-25T14:25:39.966Z,99359.00
2022-07-25T14:28:08.188Z,99349.00
2022-07-25T14:30:35.895Z,99348.00
2022-07-25T14:33:03.704Z,99358.00
2022-07-25T14:35:32.941Z,99369.00
2022-07-25T14:38:01.082Z,99372.00
2022-07-25T14:40:29.178Z,99372.00
2022-07-25T14:42:56.531Z,99373.00
2022-07-25T14:45:24.276Z,99378.00
2022-07-25T14:47:51.711Z,99375.00
2022-07-25T14:50:19.325Z,99372.00
2022-07-25T14:52:46.930Z,99377.00
2022-07-25T14:55:14.480Z,99393.00
2022-07-25T14:57:44.546Z,99386.00
2022-07-25T15:00:12.844Z,99381.00
2022-07-25T15:02:40.719Z,99388.00
2022-07-25T15:05:08.692Z,99386.00
2022-07-25T15:07:38.273Z,99383.00
2022-07-25T15:10:06.708Z,99365.00
2022-07-25T15:12:34.141Z,99365.00
2022-07-25T15:15:01.747Z,99359.00
2022-07-25T15:17:29.531Z,99361.00
2022-07-25T15:19:57.483Z,99363.00
2022-07-25T15:22:25.001Z,99347.00
2022-07-25T15:27:40.162Z,99348.00
2022-07-25T15:30:08.442Z,99339.00
2022-07-25T15:32:35.951Z,99336.00
2022-07-25T15:35:04.411Z,99336.00
2022-07-25T15:37:32.138Z,99342.00
2022-07-25T15:40:00.537Z,99334.00
2022-07-25T15:42:29.579Z,99335.00
2022-07-25T15:45:22.240Z,99339.00
2022-07-25T15:47:50.418Z,99342.00
2022-07-25T15:50:20.018Z,99342.00
2022-07-25T15:52:48.229Z,99346.00
2022-07-25T15:55:16.318Z,99346.00
2022-07-25T15:57:44.280Z,99348.00
2022-07-25T16:00:12.650Z,99336.00
2022-07-25T16:02:40.326Z,99329.00
2022-07-25T16:05:08.278Z,99317.00
2022-07-25T16:07:35.746Z,99309.00
2022-07-25T16:10:04.244Z,99304.00
2022-07-25T16:12:32.331Z,99296.00
2022-07-25T16:14:59.870Z,99297.00
2022-07-25T16:17:31.761Z,99298.00
2022-07-25T16:19:59.417Z,99310.00
2022-07-25T16:22:26.988Z,99311.00
2022-07-25T16:24:54.508Z,99314.00
2022-07-25T16:27:22.606Z,99310.00
2022-07-25T16:29:50.357Z,99315.00
2022-07-25T16:32:19.121Z,99298.00
2022-07-25T16:34:47.475Z,99306.00
2022-07-25T16:37:15.332Z,99298.00
2022-07-25T16:39:42.783Z,99299.00
2022-07-25T16:42:10.417Z,99304.00
2022-07-25T16:44:38.150Z,99307.00
2022-07-25T16:47:13.084Z,99307.00
2022-07-25T16:49:40.936Z,99306.00
2022-07-25T16:52:08.757Z,99308.00
2022-07-25T16:54:36.524Z,99291.00
2022-07-25T16:57:04.284Z,99310.00
2022-07-25T16:59:32.005Z,99314.00
2022-07-25T17:01:59.797Z,99315.00
2022-07-25T17:04:28.643Z,99319.00
2022-07-25T17:06:57.609Z,99325.00
2022-07-25T17:09:25.534Z,99327.00
2022-07-25T17:11:53.253Z,99334.00
2022-07-25T17:14:23.986Z,99343.00
2022-07-25T17:16:54.245Z,99336.00
2022-07-25T17:19:21.943Z,99341.00
2022-07-25T17:21:49.564Z,99337.00
2022-07-25T17:24:17.310Z,99350.00
2022-07-25T17:26:45.096Z,99345.00
2022-07-25T17:29:15.576Z,99348.00
2022-07-25T17:31:43.291Z,99349.00
2022-07-25T17:34:11.120Z,99347.00
2022-07-25T17:36:39.574Z,99352.00
2022-07-25T17:39:10.249Z,99358.00
2022-07-25T17:41:38.690Z,99354.00
2022-07-25T17:44:10.058Z,99363.00
2022-07-25T17:46:40.056Z,99374.00
2022-07-25T17:49:07.930Z,99384.00
2022-07-25T17:51:35.521Z,99404.00
2022-07-25T17:54:03.918Z,99407.00
2022-07-25T17:56:31.943Z,99419.00
2022-07-25T17:58:59.634Z,99428.00
2022-07-25T18:01:27.510Z,99436.00
2022-07-25T18:03:55.347Z,99455.00
2022-07-25T18:06:27.779Z,99437.00
2022-07-25T18:08:58.118Z,99442.00
2022-07-25T18:11:25.884Z,99445.00
2022-07-25T18:13:53.755Z,99450.00
2022-07-25T18:16:21.292Z,99451.00
2022-07-25T18:18:48.965Z,99458.00
2022-07-25T18:21:16.699Z,99467.00
2022-07-25T18:23:44.324Z,99465.00
2022-07-25T18:26:11.965Z,99467.00
2022-07-25T18:28:39.494Z,99470.00
2022-07-25T18:31:07.132Z,99503.00
2022-07-25T18:33:35.013Z,99522.00
2022-07-25T18:36:07.391Z,99552.00
2022-07-25T18:38:37.001Z,99567.00
2022-07-25T18:41:29.009Z,99514.00
2022-07-25T18:43:54.229Z,99529.00
2022-07-25T18:46:22.264Z,99541.00
2022-07-25T18:48:50.939Z,99571.00
2022-07-25T18:51:18.790Z,99597.00
2022-07-25T18:53:48.572Z,99618.00
2022-07-25T18:56:17.589Z,99640.00
2022-07-25T18:58:45.665Z,99651.00
2022-07-25T19:01:13.924Z,99631.00
2022-07-25T19:03:41.708Z,99608.00
2022-07-25T19:06:10.134Z,99605.00
2022-07-25T19:08:38.908Z,99597.00
2022-07-25T19:11:06.999Z,99591.00
2022-07-25T19:13:51.571Z,99592.00
2022-07-25T19:16:19.915Z,99605.00
2022-07-25T19:18:47.859Z,99613.00
2022-07-25T19:21:15.626Z,99620.00
2022-07-25T19:23:50.157Z,99648.00
2022-07-25T19:26:22.721Z,99652.00
2022-07-25T19:28:51.607Z,99653.00
2022-07-25T19:31:19.604Z,99642.00
2022-07-25T19:33:50.796Z,99634.00
2022-07-25T19:36:18.477Z,99638.00
2022-07-25T19:38:46.037Z,99647.00
2022-07-25T19:41:14.754Z,99655.00
2022-07-25T19:43:45.614Z,99654.00
2022-07-25T19:46:13.364Z,99660.00
2022-07-25T19:48:41.007Z,99662.00
2022-07-25T19:51:08.794Z,99670.00
2022-07-25T19:53:37.336Z,99665.00
2022-07-25T19:56:06.824Z,99663.00
2022-07-25T19:58:38.558Z,99672.00
2022-07-25T20:01:06.649Z,99667.00
2022-07-25T20:03:35.112Z,99674.00
2022-07-25T20:06:07.823Z,99681.00
2022-07-25T20:08:39.644Z,99694.00
2022-07-25T20:11:08.255Z,99685.00
2022-07-25T20:13:39.927Z,99683.00
2022-07-25T20:16:07.882Z,99684.00
2022-07-25T20:18:35.852Z,99683.00
2022-07-25T20:21:04.012Z,99683.00
2022-07-25T20:23:31.940Z,99682.00
2022-07-25T20:26:01.129Z,99687.00
2022-07-25T20:28:29.332Z,99686.00
2022-07-25T20:30:57.681Z,99690.00
2022-07-25T20:33:27.302Z,99692.00
2022-07-25T20:35:55.974Z,99692.00
2022-07-25T20:38:25.736Z,99691.00
2022-07-25T20:40:55.229Z,99693.00
2022-07-25T20:43:23.069Z,99699.00
2022-07-25T20:45:50.880Z,99703.00
2022-07-25T20:48:18.472Z,99702.00
2022-07-25T20:50:46.071Z,99697.00
2022-07-25T20:53:13.946Z,99705.00
2022-07-25T20:55:41.598Z,99709.00
2022-07-25T20:58:09.424Z,99714.00
2022-07-25T21:00:37.081Z,99707.00
2022-07-25T21:03:05.040Z,99700.00
2022-07-25T21:05:37.937Z,99702.00
2022-07-25T21:08:06.678Z,99705.00
2022-07-25T21:10:34.581Z,99708.00
2022-07-25T21:13:03.344Z,99719.00
2022-07-25T21:15:31.657Z,99717.00
2022-07-25T21:17:59.943Z,99718.00
2022-07-25T21:20:28.029Z,99723.00
2022-07-25T21:22:56.227Z,99725.00
2022-07-25T21:25:24.325Z,99724.00
2022-07-25T21:27:52.452Z,99727.00
2022-07-25T21:30:20.357Z,99721.00
2022-07-25T21:32:48.442Z,99729.00
2022-07-25T21:35:19.012Z,99728.00
2022-07-25T21:37:48.145Z,99726.00
2022-07-25T21:40:17.096Z,99726.00
2022-07-25T21:42:45.606Z,99724.00
2022-07-25T21:45:14.435Z,99729.00
2022-07-25T21:47:42.925Z,99728.00
2022-07-25T21:50:30.349Z,99732.00
2022-07-25T21:53:00.137Z,99733.00
2022-07-25T21:55:28.858Z,99737.00
2022-07-25T21:57:57.298Z,99742.00
2022-07-25T22:00:25.572Z,99750.00
2022-07-25T22:02:53.907Z,99754.00
2022-07-25T22:05:22.704Z,99749.00
2022-07-25T22:07:55.943Z,99753.00
2022-07-25T22:10:24.102Z,99753.00
2022-07-25T22:12:53.000Z,99762.00
2022-07-25T22:15:21.183Z,99758.00
2022-07-25T22:17:50.257Z,99766.00
2022-07-25T22:20:19.965Z,99760.00
2022-07-25T22:22:48.615Z,99762.00
2022-07-25T22:25:17.479Z,99759.00
2022-07-25T22:27:46.019Z,99755.00
2022-07-25T22:30:19.137Z,99766.00
2022-07-25T22:32:48.970Z,99760.00
2022-07-25T22:35:17.422Z,99763.00
2022-07-25T22:37:46.349Z,99768.00
2022-07-25T22:40:14.977Z,99769.00
2022-07-25T22:42:43.339Z,99776.00
2022-07-25T22:45:12.320Z,99784.00
2022-07-25T22:47:40.700Z,99785.00
2022-07-25T22:50:09.882Z,99781.00
2022-07-25T22:52:41.015Z,99789.00
2022-07-25T22:55:10.014Z,99795.00
2022-07-25T22:57:37.796Z,99795.00
2022-07-25T23:00:10.133Z,99794.00
2022-07-25T23:02:39.095Z,99791.00
2022-07-25T23:05:07.886Z,99778.00
2022-07-25T23:07:35.993Z,99783.00
2022-07-25T23:10:04.629Z,99795.00
2022-07-25T23:12:32.581Z,99794.00
2022-07-25T23:15:00.815Z,99807.00
2022-07-25T23:17:28.514Z,99806.00
2022-07-25T23:19:57.103Z,99818.00
2022-07-25T23:22:28.570Z,99817.00
2022-07-25T23:24:56.964Z,99804.00
2022-07-25T23:27:26.135Z,99803.00
2022-07-25T23:29:54.130Z,99796.00
2022-07-25T23:32:21.914Z,99798.00
2022-07-25T23:34:49.459Z,99806.00
2022-07-25T23:37:17.135Z,99798.00
2022-07-25T23:39:44.806Z,99802.00
2022-07-25T23:42:12.921Z,99805.00
2022-07-25T23:44:42.482Z,99804.00
2022-07-25T23:47:12.484Z,99795.00
2022-07-25T23:49:41.042Z,99799.00
2022-07-25T23:52:08.922Z,99794.00
2022-07-25T23:54:38.450Z,99803.00
2022-07-25T23:57:07.544Z,99799.00
2022-07-25T23:59:36.639Z,99798.00
